createdAt,value
2019-05-06T00:00:05.559Z,99.90
2019-05-06T00:01:18.817Z,99.90
2019-05-06T00:02:33.904Z,99.90
2019-05-06T00:03:47.066Z,99.90
2019-05-06T00:05:00.351Z,99.90
2019-05-06T00:06:15.237Z,99.90
2019-05-06T00:07:28.507Z,99.90
2019-05-06T00:08:43.844Z,99.90
2019-05-06T00:09:56.966Z,99.90
2019-05-06T00:11:10.246Z,99.90
2019-05-06T00:12:23.946Z,99.90
2019-05-06T00:13:37.338Z,99.90
2019-05-06T00:14:50.606Z,99.90
2019-05-06T00:16:04.076Z,99.90
2019-05-06T00:17:17.404Z,99.90
2019-05-06T00:18:30.665Z,99.90
2019-05-06T00:19:44.738Z,99.90
2019-05-06T00:20:58.067Z,99.90
2019-05-06T00:22:11.429Z,99.90
2019-05-06T00:23:26.425Z,99.90
2019-05-06T00:24:44.081Z,99.90
2019-05-06T00:26:03.912Z,99.90
2019-05-06T00:27:18.725Z,99.90
2019-05-06T00:28:36.685Z,99.90
2019-05-06T00:29:49.945Z,99.90
2019-05-06T00:31:19.943Z,99.90
2019-05-06T00:32:34.808Z,99.90
2019-05-06T00:33:48.252Z,99.90
2019-05-06T00:35:01.514Z,99.90
2019-05-06T00:36:14.779Z,99.90
2019-05-06T00:37:28.040Z,99.90
2019-05-06T00:38:44.681Z,99.90
2019-05-06T00:40:04.532Z,99.90
2019-05-06T00:41:18.966Z,99.90
2019-05-06T00:42:34.698Z,99.90
2019-05-06T00:43:49.061Z,99.90
2019-05-06T00:45:04.280Z,99.90
2019-05-06T00:46:17.303Z,99.90
2019-05-06T00:47:30.569Z,99.90
2019-05-06T00:48:44.881Z,99.90
2019-05-06T00:49:58.345Z,99.90
2019-05-06T00:51:13.445Z,99.90
2019-05-06T00:52:26.589Z,99.90
2019-05-06T00:53:47.137Z,99.90
2019-05-06T00:55:00.425Z,99.90
2019-05-06T00:56:14.062Z,99.90
2019-05-06T00:57:28.978Z,99.90
2019-05-06T00:58:43.579Z,99.90
2019-05-06T00:59:56.990Z,99.90
2019-05-06T01:01:25.514Z,99.90
2019-05-06T01:02:25.597Z,99.90
2019-05-06T01:03:38.869Z,99.90
2019-05-06T01:04:54.144Z,99.90
2019-05-06T01:06:07.425Z,99.90
2019-05-06T01:07:20.693Z,99.90
2019-05-06T01:08:34.898Z,99.90
2019-05-06T01:09:48.405Z,99.90
2019-05-06T01:11:03.878Z,99.90
2019-05-06T01:12:16.649Z,99.90
2019-05-06T01:13:35.109Z,99.90
2019-05-06T01:14:50.075Z,99.90
2019-05-06T01:16:04.283Z,99.90
2019-05-06T01:17:17.664Z,99.90
2019-05-06T01:18:30.922Z,99.90
2019-05-06T01:19:45.797Z,99.90
2019-05-06T01:21:10.916Z,99.90
2019-05-06T01:22:24.770Z,99.90
2019-05-06T01:23:39.745Z,99.90
2019-05-06T01:24:53.014Z,99.90
2019-05-06T01:26:06.265Z,99.90
2019-05-06T01:27:19.861Z,99.90
2019-05-06T01:28:34.092Z,99.90
2019-05-06T01:29:48.029Z,99.90
2019-05-06T01:31:01.282Z,99.90
2019-05-06T01:32:14.714Z,99.90
2019-05-06T01:33:28.011Z,99.90
2019-05-06T01:34:41.340Z,99.90
2019-05-06T01:35:54.595Z,99.90
2019-05-06T01:37:07.863Z,99.90
2019-05-06T01:38:38.830Z,99.90
2019-05-06T01:39:59.818Z,99.90
2019-05-06T01:41:30.713Z,99.90
2019-05-06T01:42:45.615Z,99.90
2019-05-06T01:43:59.123Z,99.90
2019-05-06T01:45:14.143Z,99.90
2019-05-06T01:46:27.520Z,99.90
2019-05-06T01:47:40.779Z,99.90
2019-05-06T01:48:54.033Z,99.90
2019-05-06T01:50:07.381Z,99.90
2019-05-06T01:51:24.074Z,99.90
2019-05-06T01:52:37.240Z,99.90
2019-05-06T01:53:50.500Z,99.90
2019-05-06T01:55:05.734Z,99.90
2019-05-06T01:56:18.984Z,99.90
2019-05-06T01:57:33.782Z,99.90
2019-05-06T01:58:47.267Z,99.90
2019-05-06T02:00:00.533Z,99.90
2019-05-06T02:01:14.919Z,99.90
2019-05-06T02:02:28.317Z,99.90
2019-05-06T02:03:41.593Z,99.90
2019-05-06T02:04:55.422Z,99.90
2019-05-06T02:06:08.949Z,99.90
2019-05-06T02:07:24.084Z,99.90
2019-05-06T02:08:37.576Z,99.90
2019-05-06T02:09:50.832Z,99.90
2019-05-06T02:11:04.194Z,99.90
2019-05-06T02:12:17.545Z,99.90
2019-05-06T02:13:30.817Z,99.90
2019-05-06T02:14:44.068Z,99.90
2019-05-06T02:15:57.325Z,99.90
2019-05-06T02:17:10.585Z,99.90
2019-05-06T02:18:24.399Z,99.90
2019-05-06T02:19:38.210Z,99.90
2019-05-06T02:20:53.799Z,99.90
2019-05-06T02:22:13.522Z,99.90
2019-05-06T02:23:46.238Z,99.90
2019-05-06T02:25:04.587Z,99.90
2019-05-06T02:26:17.959Z,99.90
2019-05-06T02:27:31.215Z,99.90
2019-05-06T02:28:46.132Z,99.90
2019-05-06T02:30:01.053Z,99.90
2019-05-06T02:31:35.146Z,99.90
2019-05-06T02:32:55.648Z,99.90
2019-05-06T02:34:10.963Z,99.90
2019-05-06T02:35:26.779Z,99.90
2019-05-06T02:36:50.660Z,99.90
2019-05-06T02:38:04.986Z,99.90
2019-05-06T02:39:18.459Z,99.90
2019-05-06T02:40:33.232Z,99.90
2019-05-06T02:41:46.710Z,99.90
2019-05-06T02:43:02.983Z,99.90
2019-05-06T02:44:15.091Z,99.90
2019-05-06T02:45:28.420Z,99.90
2019-05-06T02:46:44.212Z,99.90
2019-05-06T02:48:13.644Z,99.90
2019-05-06T02:49:27.657Z,99.90
2019-05-06T02:50:45.633Z,99.90
2019-05-06T02:51:58.931Z,99.90
2019-05-06T02:53:13.382Z,99.90
2019-05-06T02:54:26.760Z,99.90
2019-05-06T02:55:42.822Z,99.90
2019-05-06T02:56:54.991Z,99.90
2019-05-06T02:58:08.316Z,99.90
2019-05-06T02:59:24.009Z,99.90
2019-05-06T03:00:36.849Z,99.90
2019-05-06T03:01:50.102Z,99.90
2019-05-06T03:03:03.363Z,99.90
2019-05-06T03:04:16.623Z,99.90
2019-05-06T03:05:33.195Z,99.90
2019-05-06T03:06:44.988Z,99.90
2019-05-06T03:07:58.306Z,99.90
2019-05-06T03:09:13.583Z,99.90
2019-05-06T03:10:26.804Z,99.90
2019-05-06T03:11:40.063Z,99.90
2019-05-06T03:12:53.917Z,99.90
2019-05-06T03:14:07.393Z,99.90
2019-05-06T03:15:23.605Z,99.90
2019-05-06T03:16:35.640Z,99.90
2019-05-06T03:17:48.896Z,99.90
2019-05-06T03:19:04.182Z,99.90
2019-05-06T03:20:39.770Z,99.90
2019-05-06T03:22:13.319Z,99.90
2019-05-06T03:23:39.482Z,99.90
2019-05-06T03:24:54.751Z,99.90
2019-05-06T03:26:08.194Z,99.90
2019-05-06T03:27:23.542Z,99.90
2019-05-06T03:28:36.453Z,99.90
2019-05-06T03:29:49.714Z,99.90
2019-05-06T03:31:06.660Z,99.90
2019-05-06T03:32:24.695Z,99.90
2019-05-06T03:33:50.028Z,99.90
2019-05-06T03:35:09.047Z,99.90
2019-05-06T03:36:14.250Z,99.90
2019-05-06T03:37:17.969Z,99.90
2019-05-06T03:38:33.561Z,99.90
2019-05-06T03:39:46.260Z,99.90
2019-05-06T03:40:59.533Z,99.90
2019-05-06T03:42:16.661Z,99.90
2019-05-06T03:43:29.777Z,99.90
2019-05-06T03:44:44.689Z,99.90
2019-05-06T03:46:04.310Z,99.90
2019-05-06T03:47:19.166Z,99.90
2019-05-06T03:48:44.203Z,99.90
2019-05-06T03:49:57.836Z,99.90
2019-05-06T03:51:12.825Z,99.90
2019-05-06T03:52:27.702Z,99.90
2019-05-06T03:53:43.293Z,99.90
2019-05-06T03:54:55.977Z,99.90
2019-05-06T03:56:09.237Z,99.90
2019-05-06T03:57:23.409Z,99.90
2019-05-06T03:58:37.642Z,99.90
2019-05-06T03:59:52.856Z,99.90
2019-05-06T04:01:06.035Z,99.90
2019-05-06T04:02:19.376Z,99.90
2019-05-06T04:03:44.131Z,99.90
2019-05-06T04:04:47.677Z,99.90
2019-05-06T04:06:04.494Z,99.90
2019-05-06T04:07:16.562Z,99.90
2019-05-06T04:08:29.989Z,99.90
2019-05-06T04:09:44.192Z,99.90
2019-05-06T04:10:57.654Z,99.90
2019-05-06T04:12:12.834Z,99.90
2019-05-06T04:13:25.990Z,99.90
2019-05-06T04:14:39.255Z,99.90
2019-05-06T04:16:03.565Z,99.90
2019-05-06T04:17:19.931Z,99.90
2019-05-06T04:18:43.595Z,99.90
2019-05-06T04:19:58.554Z,99.90
2019-05-06T04:21:16.682Z,99.90
2019-05-06T04:22:33.056Z,99.90
2019-05-06T04:23:46.792Z,99.90
2019-05-06T04:25:18.180Z,99.90
2019-05-06T04:26:53.431Z,99.90
2019-05-06T04:28:07.939Z,99.90
2019-05-06T04:29:23.861Z,99.90
2019-05-06T04:30:36.311Z,99.90
2019-05-06T04:31:49.698Z,99.90
2019-05-06T04:33:03.428Z,99.90
2019-05-06T04:34:19.623Z,99.90
2019-05-06T04:35:33.793Z,99.90
2019-05-06T04:36:47.414Z,99.90
2019-05-06T04:38:03.177Z,99.90
2019-05-06T04:39:15.653Z,99.90
2019-05-06T04:40:28.911Z,99.90
2019-05-06T04:41:43.402Z,99.90
2019-05-06T04:42:56.827Z,99.90
2019-05-06T04:44:13.565Z,99.90
2019-05-06T04:45:25.081Z,99.90
2019-05-06T04:46:38.411Z,99.90
2019-05-06T04:47:53.777Z,99.90
2019-05-06T04:49:10.517Z,99.90
2019-05-06T04:50:24.168Z,99.90
2019-05-06T04:51:37.210Z,99.90
2019-05-06T04:52:55.013Z,99.90
2019-05-06T04:54:08.374Z,99.90
2019-05-06T04:55:22.660Z,99.90
2019-05-06T04:56:35.981Z,99.90
2019-05-06T04:57:49.572Z,99.90
2019-05-06T04:59:06.286Z,99.90
2019-05-06T05:00:17.826Z,99.90
2019-05-06T05:01:33.889Z,99.90
2019-05-06T05:02:46.629Z,99.90
2019-05-06T05:04:03.275Z,99.90
2019-05-06T05:05:14.957Z,99.90
2019-05-06T05:06:28.246Z,99.90
2019-05-06T05:07:42.599Z,99.90
2019-05-06T05:08:55.935Z,99.90
2019-05-06T05:10:12.526Z,99.90
2019-05-06T05:11:27.580Z,99.90
2019-05-06T05:12:45.464Z,99.90
2019-05-06T05:14:02.810Z,99.90
2019-05-06T05:15:22.962Z,99.90
2019-05-06T05:16:42.083Z,99.90
2019-05-06T05:18:15.166Z,99.90
2019-05-06T05:19:32.567Z,99.90
2019-05-06T05:20:46.717Z,99.90
2019-05-06T05:22:06.309Z,99.90
2019-05-06T05:23:22.846Z,99.90
2019-05-06T05:24:36.393Z,99.90
2019-05-06T05:25:52.057Z,99.90
2019-05-06T05:27:05.937Z,99.90
2019-05-06T05:28:19.470Z,99.90
2019-05-06T05:29:32.802Z,99.90
2019-05-06T05:30:46.092Z,99.90
2019-05-06T05:31:59.383Z,99.90
2019-05-06T05:33:13.283Z,99.90
2019-05-06T05:34:37.116Z,99.90
2019-05-06T05:35:43.280Z,99.90
2019-05-06T05:36:56.613Z,99.90
2019-05-06T05:38:09.885Z,99.90
2019-05-06T05:39:23.146Z,99.90
2019-05-06T05:40:37.677Z,99.90
2019-05-06T05:41:52.181Z,99.90
2019-05-06T05:43:11.721Z,99.90
2019-05-06T05:44:26.747Z,99.90
2019-05-06T05:45:42.284Z,99.90
2019-05-06T05:46:55.003Z,99.90
2019-05-06T05:48:16.451Z,99.90
2019-05-06T05:49:32.486Z,99.90
2019-05-06T05:50:45.836Z,99.90
2019-05-06T05:51:59.102Z,99.90
2019-05-06T05:53:12.365Z,99.90
2019-05-06T05:54:25.636Z,99.90
2019-05-06T05:55:38.919Z,99.90
2019-05-06T05:56:52.917Z,99.90
2019-05-06T05:58:06.307Z,99.40
2019-05-06T05:59:19.574Z,98.60
2019-05-06T06:00:34.283Z,98.00
2019-05-06T06:01:47.642Z,98.80
2019-05-06T06:03:02.881Z,98.90
2019-05-06T06:04:16.369Z,99.40
2019-05-06T06:05:29.697Z,99.20
2019-05-06T06:06:42.968Z,98.90
2019-05-06T06:07:56.260Z,96.70
2019-05-06T06:09:09.509Z,96.80
2019-05-06T06:10:30.166Z,96.60
2019-05-06T06:11:47.860Z,95.70
2019-05-06T06:13:02.164Z,95.70
2019-05-06T06:14:33.347Z,96.30
2019-05-06T06:15:53.953Z,96.20
2019-05-06T06:17:27.231Z,93.80
2019-05-06T06:18:53.942Z,95.40
2019-05-06T06:20:24.836Z,95.90
2019-05-06T06:21:40.003Z,97.00
2019-05-06T06:22:53.745Z,96.40
2019-05-06T06:24:08.657Z,96.30
2019-05-06T06:25:23.586Z,95.40
2019-05-06T06:26:37.109Z,95.10
2019-05-06T06:27:52.105Z,95.30
2019-05-06T06:29:05.600Z,95.00
2019-05-06T06:30:22.135Z,94.00
2019-05-06T06:31:52.472Z,94.00
2019-05-06T06:33:05.818Z,94.20
2019-05-06T06:34:22.308Z,93.10
2019-05-06T06:35:46.105Z,93.70
2019-05-06T06:37:02.624Z,94.30
2019-05-06T06:38:33.790Z,94.00
2019-05-06T06:39:48.957Z,93.80
2019-05-06T06:41:02.814Z,93.50
2019-05-06T06:42:16.145Z,95.00
2019-05-06T06:43:29.408Z,96.40
2019-05-06T06:44:42.675Z,95.30
2019-05-06T06:45:55.924Z,94.00
2019-05-06T06:47:09.193Z,93.60
2019-05-06T06:48:22.883Z,93.30
2019-05-06T06:49:36.227Z,92.60
2019-05-06T06:50:49.495Z,92.40
2019-05-06T06:52:03.059Z,92.10
2019-05-06T06:53:16.535Z,93.90
2019-05-06T06:54:32.180Z,93.80
2019-05-06T06:55:44.786Z,92.30
2019-05-06T06:57:08.750Z,91.70
2019-05-06T06:58:18.977Z,90.70
2019-05-06T06:59:36.732Z,90.90
2019-05-06T07:01:07.945Z,92.20
2019-05-06T07:02:37.882Z,91.60
2019-05-06T07:03:52.917Z,92.10
2019-05-06T07:05:27.101Z,90.60
2019-05-06T07:06:36.335Z,90.10
2019-05-06T07:07:49.772Z,91.30
2019-05-06T07:09:04.908Z,90.60
2019-05-06T07:10:36.239Z,91.70
2019-05-06T07:11:49.565Z,93.00
2019-05-06T07:13:03.099Z,92.20
2019-05-06T07:14:16.447Z,92.70
2019-05-06T07:15:29.752Z,92.50
2019-05-06T07:16:44.428Z,92.20
2019-05-06T07:17:57.683Z,91.00
2019-05-06T07:19:12.798Z,85.40
2019-05-06T07:20:27.802Z,85.90
2019-05-06T07:21:43.709Z,90.00
2019-05-06T07:22:57.370Z,89.10
2019-05-06T07:24:12.964Z,90.50
2019-05-06T07:25:25.622Z,92.20
2019-05-06T07:26:42.099Z,88.40
2019-05-06T07:27:55.492Z,84.30
2019-05-06T07:29:16.810Z,90.90
2019-05-06T07:30:25.389Z,83.00
2019-05-06T07:31:38.652Z,78.40
2019-05-06T07:32:52.748Z,77.70
2019-05-06T07:34:06.150Z,79.40
2019-05-06T07:35:19.423Z,82.00
2019-05-06T07:36:32.675Z,83.80
2019-05-06T07:37:45.941Z,76.30
2019-05-06T07:38:59.213Z,74.00
2019-05-06T07:40:12.641Z,75.00
2019-05-06T07:41:36.217Z,75.30
2019-05-06T07:42:52.556Z,76.40
2019-05-06T07:44:13.021Z,76.40
2019-05-06T07:45:46.431Z,77.70
2019-05-06T07:47:03.540Z,77.50
2019-05-06T07:48:17.428Z,72.60
2019-05-06T07:49:32.790Z,71.50
2019-05-06T07:50:45.749Z,69.10
2019-05-06T07:51:59.017Z,66.80
2019-05-06T07:53:13.268Z,65.90
2019-05-06T07:54:26.739Z,66.80
2019-05-06T07:55:42.229Z,65.90
2019-05-06T07:56:54.985Z,63.10
2019-05-06T07:58:08.244Z,61.80
2019-05-06T07:59:22.454Z,62.40
2019-05-06T08:00:36.294Z,62.20
2019-05-06T08:01:49.563Z,60.80
2019-05-06T08:03:02.832Z,61.40
2019-05-06T08:04:16.162Z,61.20
2019-05-06T08:05:29.457Z,59.90
2019-05-06T08:06:43.011Z,60.00
2019-05-06T08:07:56.357Z,60.30
2019-05-06T08:09:09.791Z,58.90
2019-05-06T08:10:23.045Z,58.40
2019-05-06T08:11:36.342Z,59.20
2019-05-06T08:12:49.606Z,61.10
2019-05-06T08:14:02.870Z,60.20
2019-05-06T08:15:16.159Z,60.10
2019-05-06T08:16:31.916Z,61.50
2019-05-06T08:17:45.286Z,63.10
2019-05-06T08:18:58.550Z,62.60
2019-05-06T08:20:13.073Z,62.30
2019-05-06T08:21:32.594Z,59.70
2019-05-06T08:22:47.370Z,60.00
2019-05-06T08:24:02.618Z,59.10
2019-05-06T08:25:15.627Z,58.00
2019-05-06T08:26:28.965Z,57.20
2019-05-06T08:27:42.705Z,57.40
2019-05-06T08:28:56.065Z,57.70
2019-05-06T08:30:09.354Z,56.70
2019-05-06T08:31:22.884Z,57.10
2019-05-06T08:32:36.141Z,57.30
2019-05-06T08:33:49.403Z,59.60
2019-05-06T08:35:03.368Z,56.90
2019-05-06T08:36:18.736Z,54.60
2019-05-06T08:37:33.663Z,55.40
2019-05-06T08:38:56.881Z,54.50
2019-05-06T08:40:11.967Z,55.10
2019-05-06T08:41:26.201Z,53.00
2019-05-06T08:42:39.537Z,53.70
2019-05-06T08:43:52.999Z,53.50
2019-05-06T08:45:07.219Z,51.60
2019-05-06T08:46:23.206Z,51.40
2019-05-06T08:47:35.613Z,52.00
2019-05-06T08:48:48.877Z,53.40
2019-05-06T08:50:03.900Z,50.90
2019-05-06T08:51:36.895Z,51.50
2019-05-06T08:52:54.549Z,52.20
2019-05-06T08:54:15.138Z,50.30
2019-05-06T08:55:30.104Z,50.50
2019-05-06T08:56:43.410Z,50.80
2019-05-06T08:57:56.738Z,49.50
2019-05-06T08:59:10.034Z,48.30
2019-05-06T09:00:23.308Z,48.70
2019-05-06T09:01:42.415Z,48.30
2019-05-06T09:02:55.910Z,48.70
2019-05-06T09:04:12.830Z,49.10
2019-05-06T09:05:24.182Z,49.20
2019-05-06T09:06:37.452Z,49.40
2019-05-06T09:07:52.401Z,50.20
2019-05-06T09:09:07.386Z,51.20
2019-05-06T09:10:22.729Z,49.60
2019-05-06T09:11:35.978Z,48.40
2019-05-06T09:12:49.798Z,49.90
2019-05-06T09:14:03.559Z,51.20
2019-05-06T09:15:16.929Z,50.60
2019-05-06T09:16:32.912Z,48.90
2019-05-06T09:17:45.189Z,49.50
2019-05-06T09:18:58.465Z,50.10
2019-05-06T09:20:12.999Z,49.90
2019-05-06T09:21:26.331Z,50.20
2019-05-06T09:22:39.586Z,49.80
2019-05-06T09:23:53.251Z,49.70
2019-05-06T09:25:06.678Z,47.50
2019-05-06T09:26:22.426Z,47.60
2019-05-06T09:27:43.449Z,47.20
2019-05-06T09:29:03.866Z,46.60
2019-05-06T09:30:19.209Z,46.00
2019-05-06T09:31:37.074Z,47.20
2019-05-06T09:32:52.134Z,48.40
2019-05-06T09:34:15.941Z,49.20
2019-05-06T09:35:29.281Z,49.80
2019-05-06T09:36:51.481Z,48.10
2019-05-06T09:37:57.792Z,48.30
2019-05-06T09:39:12.984Z,48.70
2019-05-06T09:40:26.070Z,49.20
2019-05-06T09:41:39.375Z,48.00
2019-05-06T09:42:52.673Z,48.90
2019-05-06T09:44:05.942Z,48.70
2019-05-06T09:45:19.209Z,47.40
2019-05-06T09:46:32.512Z,47.40
2019-05-06T09:47:47.491Z,47.50
2019-05-06T09:49:14.521Z,47.50
2019-05-06T09:50:36.054Z,46.80
2019-05-06T09:51:48.705Z,47.20
2019-05-06T09:53:02.514Z,46.90
2019-05-06T09:54:17.563Z,48.50
2019-05-06T09:55:38.146Z,48.00
2019-05-06T09:57:05.129Z,47.50
2019-05-06T09:58:18.485Z,47.40
2019-05-06T09:59:32.166Z,47.50
2019-05-06T10:00:53.130Z,46.20
2019-05-06T10:02:06.425Z,46.40
2019-05-06T10:03:19.717Z,48.00
2019-05-06T10:04:32.973Z,46.70
2019-05-06T10:05:46.250Z,45.80
2019-05-06T10:07:00.028Z,46.40
2019-05-06T10:08:13.459Z,45.70
2019-05-06T10:09:26.741Z,44.60
2019-05-06T10:10:53.679Z,44.70
2019-05-06T10:11:54.994Z,43.80
2019-05-06T10:13:08.327Z,45.40
2019-05-06T10:14:23.377Z,47.70
2019-05-06T10:15:36.596Z,45.20
2019-05-06T10:16:52.203Z,45.40
2019-05-06T10:18:08.292Z,46.60
2019-05-06T10:19:22.602Z,46.30
2019-05-06T10:20:38.385Z,47.00
2019-05-06T10:21:53.112Z,47.80
2019-05-06T10:23:06.945Z,48.00
2019-05-06T10:24:20.200Z,49.00
2019-05-06T10:25:33.458Z,48.20
2019-05-06T10:26:52.360Z,48.30
2019-05-06T10:28:08.061Z,48.50
2019-05-06T10:29:25.909Z,49.30
2019-05-06T10:30:39.158Z,49.60
2019-05-06T10:32:06.429Z,48.60
2019-05-06T10:33:27.269Z,48.90
2019-05-06T10:34:40.534Z,49.60
2019-05-06T10:35:53.816Z,49.20
2019-05-06T10:37:19.134Z,48.80
2019-05-06T10:38:42.384Z,48.20
2019-05-06T10:40:04.690Z,45.70
2019-05-06T10:41:22.207Z,46.70
2019-05-06T10:42:38.370Z,48.10
2019-05-06T10:43:55.218Z,47.20
2019-05-06T10:45:20.410Z,46.30
2019-05-06T10:46:33.680Z,46.40
2019-05-06T10:47:46.935Z,47.00
2019-05-06T10:49:02.542Z,47.40
2019-05-06T10:50:15.777Z,47.20
2019-05-06T10:51:32.375Z,47.90
2019-05-06T10:53:03.715Z,48.90
2019-05-06T10:54:17.012Z,47.50
2019-05-06T10:55:32.326Z,47.00
2019-05-06T10:56:57.065Z,47.10
2019-05-06T10:58:07.821Z,46.50
2019-05-06T10:59:22.077Z,47.30
2019-05-06T11:00:35.596Z,45.50
2019-05-06T11:01:51.138Z,46.00
2019-05-06T11:03:22.622Z,45.10
2019-05-06T11:04:35.957Z,44.10
2019-05-06T11:05:49.233Z,44.10
2019-05-06T11:07:03.994Z,44.10
2019-05-06T11:08:17.548Z,42.40
2019-05-06T11:09:33.145Z,42.70
2019-05-06T11:10:45.974Z,43.00
2019-05-06T11:11:59.241Z,44.40
2019-05-06T11:13:12.960Z,44.70
2019-05-06T11:14:26.341Z,43.00
2019-05-06T11:15:39.620Z,44.30
2019-05-06T11:16:52.893Z,44.80
2019-05-06T11:18:06.288Z,44.40
2019-05-06T11:19:19.608Z,41.30
2019-05-06T11:20:33.437Z,41.30
2019-05-06T11:21:46.925Z,42.20
2019-05-06T11:23:02.117Z,43.50
2019-05-06T11:24:15.248Z,43.50
2019-05-06T11:25:28.510Z,43.70
2019-05-06T11:26:42.951Z,43.50
2019-05-06T11:27:56.422Z,44.10
2019-05-06T11:29:20.156Z,44.70
2019-05-06T11:30:37.799Z,44.90
2019-05-06T11:31:54.301Z,45.10
2019-05-06T11:33:25.459Z,45.10
2019-05-06T11:34:43.461Z,45.30
2019-05-06T11:36:12.197Z,46.10
2019-05-06T11:37:47.180Z,46.10
2019-05-06T11:38:53.781Z,46.20
2019-05-06T11:40:07.049Z,46.70
2019-05-06T11:41:20.338Z,46.80
2019-05-06T11:42:35.951Z,46.10
2019-05-06T11:43:48.606Z,45.70
2019-05-06T11:45:03.162Z,46.20
2019-05-06T11:46:16.597Z,46.30
2019-05-06T11:47:32.327Z,47.70
2019-05-06T11:48:45.135Z,48.00
2019-05-06T11:49:58.873Z,49.00
2019-05-06T11:51:13.846Z,48.40
2019-05-06T11:52:27.185Z,48.50
2019-05-06T11:53:40.520Z,45.20
2019-05-06T11:54:53.794Z,43.80
2019-05-06T11:56:07.069Z,43.40
2019-05-06T11:57:20.338Z,43.40
2019-05-06T11:58:52.885Z,43.80
2019-05-06T12:00:06.360Z,43.70
2019-05-06T12:01:21.501Z,42.10
2019-05-06T12:02:34.763Z,42.30
2019-05-06T12:03:48.026Z,43.10
2019-05-06T12:05:02.326Z,42.00
2019-05-06T12:06:15.753Z,42.50
2019-05-06T12:07:29.084Z,43.00
2019-05-06T12:08:43.141Z,43.30
2019-05-06T12:09:56.602Z,44.00
2019-05-06T12:11:11.934Z,44.60
2019-05-06T12:12:24.964Z,45.20
2019-05-06T12:13:38.332Z,45.20
2019-05-06T12:14:52.702Z,45.30
2019-05-06T12:16:06.211Z,45.50
2019-05-06T12:17:19.510Z,45.50
2019-05-06T12:18:32.854Z,45.70
2019-05-06T12:19:46.189Z,46.70
2019-05-06T12:21:09.066Z,46.90
2019-05-06T12:22:14.513Z,46.50
2019-05-06T12:23:27.806Z,46.20
2019-05-06T12:24:43.088Z,46.20
2019-05-06T12:25:56.069Z,47.00
2019-05-06T12:27:09.405Z,48.30
2019-05-06T12:28:22.670Z,49.60
2019-05-06T12:29:38.374Z,50.60
2019-05-06T12:30:52.439Z,49.70
2019-05-06T12:32:12.398Z,49.10
2019-05-06T12:33:29.966Z,49.10
2019-05-06T12:34:43.253Z,49.40
2019-05-06T12:35:58.228Z,49.20
2019-05-06T12:37:13.219Z,49.60
2019-05-06T12:38:34.186Z,49.30
2019-05-06T12:39:49.114Z,49.10
2019-05-06T12:41:03.333Z,48.60
2019-05-06T12:42:18.470Z,48.20
2019-05-06T12:43:33.374Z,49.10
2019-05-06T12:44:48.539Z,47.90
2019-05-06T12:46:04.013Z,46.60
2019-05-06T12:47:32.822Z,45.80
2019-05-06T12:48:49.182Z,45.90
2019-05-06T12:50:02.917Z,46.80
2019-05-06T12:51:16.285Z,47.20
2019-05-06T12:52:29.547Z,47.60
2019-05-06T12:53:42.931Z,49.50
2019-05-06T12:55:13.658Z,48.20
2019-05-06T12:56:12.413Z,48.10
2019-05-06T12:57:25.792Z,47.00
2019-05-06T12:58:39.067Z,48.40
2019-05-06T12:59:53.061Z,48.40
2019-05-06T13:01:07.886Z,48.70
2019-05-06T13:02:23.552Z,48.90
2019-05-06T13:03:36.153Z,48.40
2019-05-06T13:04:57.776Z,48.20
2019-05-06T13:06:07.427Z,47.80
2019-05-06T13:07:21.182Z,48.60
2019-05-06T13:08:52.812Z,47.90
2019-05-06T13:09:49.462Z,47.40
2019-05-06T13:11:02.815Z,48.20
2019-05-06T13:12:17.804Z,48.00
2019-05-06T13:13:33.079Z,47.00
2019-05-06T13:14:46.053Z,46.30
2019-05-06T13:15:59.349Z,45.80
2019-05-06T13:17:14.248Z,44.80
2019-05-06T13:18:27.506Z,46.20
2019-05-06T13:19:42.738Z,45.40
2019-05-06T13:20:55.755Z,44.60
2019-05-06T13:22:13.329Z,44.00
2019-05-06T13:23:27.414Z,44.20
2019-05-06T13:24:40.752Z,44.50
2019-05-06T13:25:54.025Z,44.10
2019-05-06T13:27:12.404Z,43.40
2019-05-06T13:28:26.557Z,43.00
2019-05-06T13:29:39.875Z,43.50
2019-05-06T13:30:53.306Z,42.60
2019-05-06T13:32:08.302Z,42.90
2019-05-06T13:33:34.172Z,43.30
2019-05-06T13:34:47.341Z,44.70
2019-05-06T13:36:00.611Z,45.90
2019-05-06T13:37:13.924Z,45.90
2019-05-06T13:38:27.204Z,46.60
2019-05-06T13:39:43.665Z,46.20
2019-05-06T13:40:57.738Z,45.90
2019-05-06T13:42:13.240Z,45.10
2019-05-06T13:43:28.341Z,46.00
2019-05-06T13:44:42.583Z,42.70
2019-05-06T13:46:07.135Z,42.50
2019-05-06T13:47:25.985Z,40.60
2019-05-06T13:48:42.671Z,40.70
2019-05-06T13:49:57.920Z,41.20
2019-05-06T13:51:15.516Z,42.10
2019-05-06T13:52:30.429Z,40.70
2019-05-06T13:53:46.161Z,38.70
2019-05-06T13:54:58.696Z,40.30
2019-05-06T13:56:12.159Z,39.60
2019-05-06T13:57:28.821Z,39.10
2019-05-06T13:58:42.953Z,38.60
2019-05-06T13:59:55.555Z,39.10
2019-05-06T14:01:10.538Z,39.60
2019-05-06T14:02:28.401Z,37.70
2019-05-06T14:03:42.948Z,38.00
2019-05-06T14:04:56.346Z,38.50
2019-05-06T14:06:09.676Z,38.10
2019-05-06T14:07:24.656Z,38.30
2019-05-06T14:08:37.940Z,38.00
2019-05-06T14:09:53.183Z,38.90
2019-05-06T14:11:06.285Z,37.60
2019-05-06T14:12:21.662Z,38.30
2019-05-06T14:13:34.538Z,37.50
2019-05-06T14:14:47.807Z,36.50
2019-05-06T14:16:03.771Z,37.20
2019-05-06T14:17:16.089Z,36.10
2019-05-06T14:18:29.429Z,35.40
2019-05-06T14:19:43.155Z,36.10
2019-05-06T14:20:56.537Z,36.60
2019-05-06T14:22:12.302Z,38.20
2019-05-06T14:23:24.814Z,39.00
2019-05-06T14:24:40.483Z,39.40
2019-05-06T14:25:55.464Z,39.50
2019-05-06T14:27:10.369Z,38.90
2019-05-06T14:28:32.398Z,39.50
2019-05-06T14:30:04.567Z,41.40
2019-05-06T14:31:19.216Z,41.30
2019-05-06T14:32:32.904Z,42.10
2019-05-06T14:33:46.326Z,43.00
2019-05-06T14:34:59.665Z,43.70
2019-05-06T14:36:12.954Z,43.70
2019-05-06T14:37:26.283Z,43.70
2019-05-06T14:38:39.560Z,43.50
2019-05-06T14:39:59.159Z,43.50
2019-05-06T14:41:17.135Z,43.70
2019-05-06T14:42:30.392Z,43.80
2019-05-06T14:43:43.720Z,43.80
2019-05-06T14:44:56.997Z,44.50
2019-05-06T14:46:10.385Z,45.90
2019-05-06T14:47:25.378Z,46.30
2019-05-06T14:48:38.639Z,46.60
2019-05-06T14:49:52.967Z,46.00
2019-05-06T14:51:06.549Z,44.70
2019-05-06T14:52:22.408Z,44.00
2019-05-06T14:53:34.822Z,43.80
2019-05-06T14:54:56.090Z,44.10
2019-05-06T14:56:16.893Z,44.10
2019-05-06T14:57:32.152Z,44.40
2019-05-06T14:58:46.795Z,45.00
2019-05-06T15:00:00.061Z,44.40
2019-05-06T15:01:13.733Z,43.50
2019-05-06T15:02:27.485Z,43.80
2019-05-06T15:03:42.944Z,44.30
2019-05-06T15:04:55.864Z,44.30
2019-05-06T15:06:09.129Z,45.10
2019-05-06T15:07:22.394Z,44.80
2019-05-06T15:08:35.663Z,44.90
2019-05-06T15:09:58.593Z,44.50
2019-05-06T15:11:03.943Z,44.30
2019-05-06T15:12:17.217Z,45.40
2019-05-06T15:13:32.146Z,46.40
2019-05-06T15:14:45.850Z,47.20
2019-05-06T15:15:59.129Z,47.20
2019-05-06T15:17:14.441Z,47.40
2019-05-06T15:18:27.370Z,48.10
2019-05-06T15:19:42.693Z,48.40
2019-05-06T15:20:55.603Z,47.80
2019-05-06T15:22:08.901Z,48.00
2019-05-06T15:23:22.480Z,48.00
2019-05-06T15:24:35.794Z,47.90
2019-05-06T15:25:49.050Z,48.20
2019-05-06T15:27:02.832Z,48.50
2019-05-06T15:28:16.562Z,48.20
2019-05-06T15:29:29.877Z,48.00
2019-05-06T15:30:52.607Z,47.80
2019-05-06T15:32:07.730Z,47.90
2019-05-06T15:33:22.804Z,48.60
2019-05-06T15:34:46.851Z,50.20
2019-05-06T15:36:02.435Z,52.60
2019-05-06T15:37:24.536Z,53.70
2019-05-06T15:38:38.154Z,54.50
2019-05-06T15:39:52.237Z,55.40
2019-05-06T15:41:05.688Z,56.20
2019-05-06T15:42:19.033Z,56.10
2019-05-06T15:43:33.382Z,56.30
2019-05-06T15:44:46.798Z,56.00
2019-05-06T15:46:00.144Z,56.10
2019-05-06T15:47:13.493Z,56.30
2019-05-06T15:48:26.759Z,56.30
2019-05-06T15:49:41.844Z,56.00
2019-05-06T15:50:55.072Z,55.80
2019-05-06T15:52:08.356Z,55.90
2019-05-06T15:53:22.480Z,56.20
2019-05-06T15:54:35.850Z,56.40
2019-05-06T15:55:49.397Z,56.10
2019-05-06T15:57:02.731Z,55.80
2019-05-06T15:58:16.820Z,55.60
2019-05-06T15:59:33.077Z,55.00
2019-05-06T16:00:45.683Z,55.10
2019-05-06T16:01:59.011Z,53.30
2019-05-06T16:03:12.940Z,53.20
2019-05-06T16:04:26.649Z,53.10
2019-05-06T16:05:40.252Z,52.70
2019-05-06T16:06:53.603Z,52.70
2019-05-06T16:08:06.934Z,53.20
2019-05-06T16:09:20.374Z,54.40
2019-05-06T16:10:50.928Z,56.00